SAVANNAH NWR GA US current weather conditions

sailwx.info

Wind from 017 at 8 knots gusting 17

Air temperature -0.6° C
Dewpoint -2.9° C

Last reported at 2019-Nov-13 10:23 UTC.
Time now 2019-Nov-13 12:13 UTC

Location: N 32°06' W 081°05'.
View on Google Maps.

See reports from other nearby stations

  
Tides and Currents Weather Stations Pressure Air Temp Water Temp Dewpoint Dewpoint Depression Visibility Wind Speed Wind Dir Waves Ship Positions
date/time (UTC)wind fromknots sea level pressurealtimeterstation pressurevisibilityair tempwater tempwave heightnotes
2019-Nov-13 10:23 017 8 gusting 17 -0.6
2019-Nov-13 09:23 008 8 gusting 15 -0.0
2019-Nov-13 08:23 014 8 gusting 16 1.1
2019-Nov-13 07:23 012 6 gusting 16 2.2
2019-Nov-13 06:23 008 6 gusting 16 3.3
2019-Nov-13 05:23 005 6 gusting 13 4.4
2019-Nov-13 04:23 358 6 gusting 13 5.0
2019-Nov-13 03:23 359 6 gusting 16 6.1
2019-Nov-13 02:23 002 9 gusting 20 6.7
2019-Nov-13 01:23 014 9 gusting 19 7.8
2019-Nov-13 00:23 347 11 gusting 20 9.4
2019-Nov-12 23:23 338 10 gusting 18 11.1
2019-Nov-12 22:23 325 11 gusting 19 12.8
2019-Nov-12 21:23 316 9 gusting 18 15.0
2019-Nov-12 20:23 316 7 gusting 16 16.1
2019-Nov-12 19:23 302 10 gusting 21 17.8
2019-Nov-12 18:23 257 9 gusting 17 22.2
2019-Nov-12 17:23 264 9 gusting 16 23.3
2019-Nov-12 16:23 230 8 gusting 18 23.9
2019-Nov-12 15:23 231 8 gusting 15 22.2
2019-Nov-12 14:23 222 7 gusting 13 19.4
2019-Nov-12 13:23 210 4 gusting 9 18.3
2019-Nov-12 12:23 13.9
2019-Nov-12 11:23 12.8
2019-Nov-12 10:23 13.9
2019-Nov-12 09:23 12.8
2019-Nov-12 08:23 13.3
2019-Nov-12 07:23 13.9
2019-Nov-12 06:23 13.9
2019-Nov-12 05:23 13.9
2019-Nov-12 04:23 13.9
2019-Nov-12 03:23 13.9
2019-Nov-12 02:23 13.9
2019-Nov-12 01:23 14.4
2019-Nov-12 00:23 15.0
2019-Nov-11 23:23 16.1
2019-Nov-11 22:23 19.4
2019-Nov-11 21:23 218 0 gusting 4 23.9
2019-Nov-11 20:23 353 0 gusting 6 23.9
2019-Nov-11 19:23 312 0 gusting 6 22.2
2019-Nov-11 18:23 288 4 gusting 7 22.2
2019-Nov-11 17:23 283 5 gusting 9 20.6
2019-Nov-11 16:23 247 0 gusting 5 19.4
2019-Nov-11 15:23 15.6
2019-Nov-11 14:23 12.8
2019-Nov-11 13:23 9.4
2019-Nov-11 12:23 6.1